Kossau — V2CV9 — position and weather

sailwx.info

Track history (hours):
 
Tides and Currents Weather Stations Pressure Air Temp Water Temp Dewpoint Dewpoint Depression Visibility Wind Speed Wind Dir Waves Ship Positions

Kossau

Last reported at 2017-Dec-11 07:30 UTC. Time now 2017-Dec-11 07:33 UTC.
Position N 52°24' E 004°49'.

Length 88 m; draft 3.5 m.

Type: Cargo ship. MMSI: 305122000.

Date/timePositionNaut miles runAvg speedWind from/ knotsBaromVisibWave heightAir tempDewpointWater temp
2017-Dec-11 07:30N 52°24' E 004°49'0 0.0
2017-Dec-11 07:00N 52°24' E 004°49'0 0.0
2017-Dec-11 06:30N 52°24' E 004°49'0 0.0
2017-Dec-11 06:00N 52°24' E 004°49'0 0.0
2017-Dec-11 05:27N 52°24' E 004°49'0 0.0
2017-Dec-11 05:00N 52°24' E 004°49'0 0.0
2017-Dec-11 04:30N 52°24' E 004°49'0 0.0
2017-Dec-11 04:00N 52°24' E 004°49'0 0.0
2017-Dec-11 03:30N 52°24' E 004°49'0 0.0
2017-Dec-11 03:00N 52°24' E 004°49'0 0.0
2017-Dec-11 02:30N 52°24' E 004°49'0 0.0
2017-Dec-11 01:57N 52°24' E 004°49'0 0.0
2017-Dec-11 01:30N 52°24' E 004°49'0 0.0
2017-Dec-11 01:00N 52°24' E 004°49'0 0.1
2017-Dec-11 00:30N 52°24' E 004°49'0 0.0
2017-Dec-11 00:00N 52°24' E 004°49'0 0.0
2017-Dec-10 23:30N 52°24' E 004°49'0 0.0
2017-Dec-10 23:00N 52°24' E 004°49'0 0.0
2017-Dec-10 22:30N 52°24' E 004°49'0 0.0
2017-Dec-10 21:57N 52°24' E 004°49'0 0.0
2017-Dec-10 21:30N 52°24' E 004°49'0 0.4
2017-Dec-10 21:01N 52°24' E 004°49'3 6.4
2017-Dec-10 20:30N 52°26' E 004°45'5 9.2
2017-Dec-10 20:00N 52°28' E 004°38'1 2.7
2017-Dec-10 19:30N 52°28' E 004°36'1 2.5
2017-Dec-10 19:01N 52°28' E 004°34'5 9.6
2017-Dec-10 18:30N 52°28' E 004°26'4 8.3
2017-Dec-10 18:00N 52°28' E 004°19'4 8.2
2017-Dec-10 17:30N 52°29' E 004°13'4 8.0
2017-Dec-10 17:00N 52°28' E 004°06'4 7.9
2017-Dec-10 16:30N 52°28' E 003°60'77 7.7
2017-Dec-10 06:34N 51°37' E 002°26'210.5
2017-Dec-10 06:24N 51°36' E 002°24'410.4
2017-Dec-10 06:00N 51°33' E 002°20'510.4
2017-Dec-10 05:30N 51°28' E 002°16'510.3
2017-Dec-10 05:00N 51°24' E 002°11'510.7
2017-Dec-10 04:30N 51°19' E 002°07'510.8
2017-Dec-10 04:00N 51°14' E 002°03'510.5
2017-Dec-10 03:30N 51°11' E 001°56'5 9.9
2017-Dec-10 02:59N 51°08' E 001°50'4 9.5
2017-Dec-10 02:30N 51°05' E 001°45'5 9.1
2017-Dec-10 02:00N 51°01' E 001°40'4 8.3
2017-Dec-10 01:29N 50°58' E 001°35'6 7.5
2017-Dec-10 00:44N 50°54' E 001°29'2 7.2
2017-Dec-10 00:30N 50°53' E 001°28'136 9.0
2017-Dec-09 09:22N 49°60' W 001°48'  
2017-Dec-04 10:00N 38°31' W 008°52'0 0.0
2017-Dec-04 09:30N 38°31' W 008°52'0 0.0
2017-Dec-04 09:00N 38°31' W 008°52'0 0.0
2017-Dec-04 08:30N 38°31' W 008°52'0 0.0
2017-Dec-04 08:00N 38°31' W 008°52'0 0.0
2017-Dec-04 07:30N 38°31' W 008°52'0 0.0
2017-Dec-04 07:00N 38°31' W 008°52'0 0.0
2017-Dec-04 06:30N 38°31' W 008°52'0 0.0
2017-Dec-04 05:57N 38°31' W 008°52'0 0.0
2017-Dec-04 05:30N 38°31' W 008°52'0 0.0
2017-Dec-04 05:00N 38°31' W 008°52'0 0.0
2017-Dec-04 04:30N 38°31' W 008°52'0 0.0
2017-Dec-04 04:00N 38°31' W 008°52'0 0.0
2017-Dec-04 03:30N 38°31' W 008°52'0 0.0
2017-Dec-04 03:00N 38°31' W 008°52'0 0.0
2017-Dec-04 02:21N 38°31' W 008°52'0 0.0
2017-Dec-04 01:57N 38°31' W 008°52'0 0.0
2017-Dec-04 01:30N 38°31' W 008°52'0 0.0
2017-Dec-04 01:00N 38°31' W 008°52'0 0.0
2017-Dec-04 00:30N 38°31' W 008°52'0 0.0
2017-Dec-04 00:00N 38°31' W 008°52'0 0.0
2017-Dec-03 23:30N 38°31' W 008°52'0 0.0
2017-Dec-03 22:57N 38°31' W 008°52'0 0.0
2017-Dec-03 22:30N 38°31' W 008°52'0 0.0
2017-Dec-03 22:00N 38°31' W 008°52'0 0.0
2017-Dec-03 21:30N 38°31' W 008°52'0 0.0
2017-Dec-03 21:00N 38°31' W 008°52'0 0.0
2017-Dec-03 20:30N 38°31' W 008°52'0 0.0
2017-Dec-03 19:57N 38°31' W 008°52'0 0.0
2017-Dec-03 19:30N 38°31' W 008°52'0 0.0
2017-Dec-03 19:00N 38°31' W 008°52'0 0.0
2017-Dec-03 07:24N 38°31' W 008°52'0 0.0
2017-Dec-03 06:54N 38°31' W 008°52'0 0.0
2017-Dec-03 06:30N 38°31' W 008°52'0 0.0
2017-Dec-03 06:00N 38°31' W 008°52'0 0.0
2017-Dec-03 05:30N 38°31' W 008°52'0 0.0
2017-Dec-03 05:00N 38°31' W 008°52'0 0.0
2017-Dec-03 04:30N 38°31' W 008°52'0 0.0
2017-Dec-03 04:00N 38°31' W 008°52'0 0.0
2017-Dec-03 03:30N 38°31' W 008°52'0 0.0
2017-Dec-03 03:00N 38°31' W 008°52'0 0.0
2017-Dec-03 02:30N 38°31' W 008°52'0 0.0
2017-Dec-03 02:00N 38°31' W 008°52'0 0.0
2017-Dec-02 23:15N 38°31' W 008°52'0 0.0
2017-Dec-02 23:00N 38°31' W 008°52'0 0.0
2017-Dec-02 22:30N 38°31' W 008°52'0 0.0
2017-Dec-02 21:57N 38°31' W 008°52'0 0.0
2017-Dec-02 21:30N 38°31' W 008°52'0 0.0
2017-Dec-02 21:00N 38°31' W 008°52'0 0.0
2017-Dec-02 20:30N 38°31' W 008°52'0 0.0
2017-Dec-02 19:48N 38°31' W 008°52'0 0.0
2017-Dec-02 19:18N 38°31' W 008°52'0 0.0
2017-Dec-02 09:00N 38°31' W 008°52'  
Track history (hours):
 
Tides and Currents Weather Stations Pressure Air Temp Water Temp Dewpoint Dewpoint Depression Visibility Wind Speed Wind Dir Waves Ship Positions

Kossau

Last reported at 2017-Dec-11 07:30 UTC. Time now 2017-Dec-11 07:33 UTC.
Position N 52°24' E 004°49'.

Length 88 m; draft 3.5 m.

Type: Cargo ship. MMSI: 305122000.

Date/timePositionNaut miles runAvg speedWind from/ knotsBaromVisibWave heightAir tempDewpointWater temp
2017-Dec-11 07:30N 52°24' E 004°49'0 0.0
2017-Dec-11 07:00N 52°24' E 004°49'0 0.0
2017-Dec-11 06:30N 52°24' E 004°49'0 0.0
2017-Dec-11 06:00N 52°24' E 004°49'0 0.0
2017-Dec-11 05:27N 52°24' E 004°49'0 0.0
2017-Dec-11 05:00N 52°24' E 004°49'0 0.0
2017-Dec-11 04:30N 52°24' E 004°49'0 0.0
2017-Dec-11 04:00N 52°24' E 004°49'0 0.0
2017-Dec-11 03:30N 52°24' E 004°49'0 0.0
2017-Dec-11 03:00N 52°24' E 004°49'0 0.0
2017-Dec-11 02:30N 52°24' E 004°49'0 0.0
2017-Dec-11 01:57N 52°24' E 004°49'0 0.0
2017-Dec-11 01:30N 52°24' E 004°49'0 0.0
2017-Dec-11 01:00N 52°24' E 004°49'0 0.1
2017-Dec-11 00:30N 52°24' E 004°49'0 0.0
2017-Dec-11 00:00N 52°24' E 004°49'0 0.0
2017-Dec-10 23:30N 52°24' E 004°49'0 0.0
2017-Dec-10 23:00N 52°24' E 004°49'0 0.0
2017-Dec-10 22:30N 52°24' E 004°49'0 0.0
2017-Dec-10 21:57N 52°24' E 004°49'0 0.0
2017-Dec-10 21:30N 52°24' E 004°49'0 0.4
2017-Dec-10 21:01N 52°24' E 004°49'3 6.4
2017-Dec-10 20:30N 52°26' E 004°45'5 9.2
2017-Dec-10 20:00N 52°28' E 004°38'1 2.7
2017-Dec-10 19:30N 52°28' E 004°36'1 2.5
2017-Dec-10 19:01N 52°28' E 004°34'5 9.6
2017-Dec-10 18:30N 52°28' E 004°26'4 8.3
2017-Dec-10 18:00N 52°28' E 004°19'4 8.2
2017-Dec-10 17:30N 52°29' E 004°13'4 8.0
2017-Dec-10 17:00N 52°28' E 004°06'4 7.9
2017-Dec-10 16:30N 52°28' E 003°60'77 7.7
2017-Dec-10 06:34N 51°37' E 002°26'210.5
2017-Dec-10 06:24N 51°36' E 002°24'410.4
2017-Dec-10 06:00N 51°33' E 002°20'510.4
2017-Dec-10 05:30N 51°28' E 002°16'510.3
2017-Dec-10 05:00N 51°24' E 002°11'510.7
2017-Dec-10 04:30N 51°19' E 002°07'510.8
2017-Dec-10 04:00N 51°14' E 002°03'510.5
2017-Dec-10 03:30N 51°11' E 001°56'5 9.9
2017-Dec-10 02:59N 51°08' E 001°50'4 9.5
2017-Dec-10 02:30N 51°05' E 001°45'5 9.1
2017-Dec-10 02:00N 51°01' E 001°40'4 8.3
2017-Dec-10 01:29N 50°58' E 001°35'6 7.5
2017-Dec-10 00:44N 50°54' E 001°29'2 7.2
2017-Dec-10 00:30N 50°53' E 001°28'136 9.0
2017-Dec-09 09:22N 49°60' W 001°48'  
2017-Dec-04 10:00N 38°31' W 008°52'0 0.0
2017-Dec-04 09:30N 38°31' W 008°52'0 0.0
2017-Dec-04 09:00N 38°31' W 008°52'0 0.0
2017-Dec-04 08:30N 38°31' W 008°52'0 0.0
2017-Dec-04 08:00N 38°31' W 008°52'0 0.0
2017-Dec-04 07:30N 38°31' W 008°52'0 0.0
2017-Dec-04 07:00N 38°31' W 008°52'0 0.0
2017-Dec-04 06:30N 38°31' W 008°52'0 0.0
2017-Dec-04 05:57N 38°31' W 008°52'0 0.0
2017-Dec-04 05:30N 38°31' W 008°52'0 0.0
2017-Dec-04 05:00N 38°31' W 008°52'0 0.0
2017-Dec-04 04:30N 38°31' W 008°52'0 0.0
2017-Dec-04 04:00N 38°31' W 008°52'0 0.0
2017-Dec-04 03:30N 38°31' W 008°52'0 0.0
2017-Dec-04 03:00N 38°31' W 008°52'0 0.0
2017-Dec-04 02:21N 38°31' W 008°52'0 0.0
2017-Dec-04 01:57N 38°31' W 008°52'0 0.0
2017-Dec-04 01:30N 38°31' W 008°52'0 0.0
2017-Dec-04 01:00N 38°31' W 008°52'0 0.0
2017-Dec-04 00:30N 38°31' W 008°52'0 0.0
2017-Dec-04 00:00N 38°31' W 008°52'0 0.0
2017-Dec-03 23:30N 38°31' W 008°52'0 0.0
2017-Dec-03 22:57N 38°31' W 008°52'0 0.0
2017-Dec-03 22:30N 38°31' W 008°52'0 0.0
2017-Dec-03 22:00N 38°31' W 008°52'0 0.0
2017-Dec-03 21:30N 38°31' W 008°52'0 0.0
2017-Dec-03 21:00N 38°31' W 008°52'0 0.0
2017-Dec-03 20:30N 38°31' W 008°52'0 0.0
2017-Dec-03 19:57N 38°31' W 008°52'0 0.0
2017-Dec-03 19:30N 38°31' W 008°52'0 0.0
2017-Dec-03 19:00N 38°31' W 008°52'0 0.0
2017-Dec-03 07:24N 38°31' W 008°52'0 0.0
2017-Dec-03 06:54N 38°31' W 008°52'0 0.0
2017-Dec-03 06:30N 38°31' W 008°52'0 0.0
2017-Dec-03 06:00N 38°31' W 008°52'0 0.0
2017-Dec-03 05:30N 38°31' W 008°52'0 0.0
2017-Dec-03 05:00N 38°31' W 008°52'0 0.0
2017-Dec-03 04:30N 38°31' W 008°52'0 0.0
2017-Dec-03 04:00N 38°31' W 008°52'0 0.0
2017-Dec-03 03:30N 38°31' W 008°52'0 0.0
2017-Dec-03 03:00N 38°31' W 008°52'0 0.0
2017-Dec-03 02:30N 38°31' W 008°52'0 0.0
2017-Dec-03 02:00N 38°31' W 008°52'0 0.0
2017-Dec-02 23:15N 38°31' W 008°52'0 0.0
2017-Dec-02 23:00N 38°31' W 008°52'0 0.0
2017-Dec-02 22:30N 38°31' W 008°52'0 0.0
2017-Dec-02 21:57N 38°31' W 008°52'0 0.0
2017-Dec-02 21:30N 38°31' W 008°52'0 0.0
2017-Dec-02 21:00N 38°31' W 008°52'0 0.0
2017-Dec-02 20:30N 38°31' W 008°52'0 0.0
2017-Dec-02 19:48N 38°31' W 008°52'0 0.0
2017-Dec-02 19:18N 38°31' W 008°52'0 0.0
2017-Dec-02 09:00N 38°31' W 008°52'  

Dump ship's entire track history